createdAt,value
2019-05-22T00:01:11.285Z,13.59
2019-05-22T00:04:01.213Z,13.54
2019-05-22T00:06:37.041Z,13.55
2019-05-22T00:09:10.744Z,13.53
2019-05-22T00:11:40.336Z,13.51
2019-05-22T00:14:10.996Z,13.47
2019-05-22T00:16:40.390Z,13.45
2019-05-22T00:19:09.879Z,13.39
2019-05-22T00:21:40.319Z,13.38
2019-05-22T00:24:11.262Z,13.36
2019-05-22T00:26:43.906Z,13.33
2019-05-22T00:29:14.083Z,13.29
2019-05-22T00:31:43.730Z,13.24
2019-05-22T00:34:14.167Z,13.21
2019-05-22T00:36:48.244Z,13.21
2019-05-22T00:39:19.041Z,13.19
2019-05-22T00:41:51.763Z,13.18
2019-05-22T00:44:22.055Z,13.13
2019-05-22T00:46:55.541Z,13.08
2019-05-22T00:49:27.284Z,13.09
2019-05-22T00:52:22.721Z,13.06
2019-05-22T00:54:57.628Z,13.04
2019-05-22T00:57:55.176Z,13.01
2019-05-22T01:00:35.013Z,12.97
2019-05-22T01:03:06.713Z,12.96
2019-05-22T01:05:38.369Z,12.93
2019-05-22T01:08:08.476Z,12.92
2019-05-22T01:10:39.947Z,12.89
2019-05-22T01:13:09.500Z,12.86
2019-05-22T01:15:40.814Z,12.82
2019-05-22T01:18:14.313Z,12.80
2019-05-22T01:20:43.649Z,12.76
2019-05-22T01:23:18.203Z,12.71
2019-05-22T01:25:47.863Z,12.68
2019-05-22T01:28:17.514Z,12.65
2019-05-22T01:33:56.887Z,12.60
2019-05-22T01:36:45.762Z,12.55
2019-05-22T01:39:43.947Z,12.51
2019-05-22T01:42:20.286Z,12.44
2019-05-22T01:45:03.541Z,12.44
2019-05-22T01:47:36.648Z,12.42
2019-05-22T01:50:07.241Z,12.42
2019-05-22T01:52:38.563Z,12.40
2019-05-22T01:55:09.932Z,12.38
2019-05-22T01:57:44.092Z,12.36
2019-05-22T02:00:16.919Z,12.33
2019-05-22T02:02:47.363Z,12.29
2019-05-22T02:05:18.473Z,12.27
2019-05-22T02:07:48.392Z,12.22
2019-05-22T02:10:24.865Z,12.15
2019-05-22T02:12:59.500Z,12.15
2019-05-22T02:15:30.662Z,12.09
2019-05-22T02:18:04.831Z,12.05
2019-05-22T02:20:35.658Z,12.02
2019-05-22T02:23:07.093Z,12.03
2019-05-22T02:25:37.805Z,12.03
2019-05-22T02:28:09.231Z,11.96
2019-05-22T02:30:40.251Z,12.00
2019-05-22T02:33:10.261Z,11.93
2019-05-22T02:35:40.901Z,11.93
2019-05-22T02:38:10.628Z,11.93
2019-05-22T02:40:41.757Z,11.91
2019-05-22T02:43:12.016Z,11.91
2019-05-22T02:45:42.013Z,11.91
2019-05-22T02:48:11.932Z,11.88
2019-05-22T02:50:42.001Z,11.87
2019-05-22T02:53:13.805Z,11.86
2019-05-22T02:55:43.222Z,11.84
2019-05-22T02:58:13.273Z,11.81
2019-05-22T03:00:57.303Z,11.81
2019-05-22T03:03:27.631Z,11.75
2019-05-22T03:05:58.713Z,11.75
2019-05-22T03:08:35.833Z,11.69
2019-05-22T03:11:07.488Z,11.61
2019-05-22T03:14:01.706Z,11.50
2019-05-22T03:16:52.435Z,11.50
2019-05-22T03:19:45.294Z,11.47
2019-05-22T03:22:29.228Z,11.47
2019-05-22T03:25:01.899Z,11.42
2019-05-22T03:27:43.342Z,11.34
2019-05-22T03:30:29.767Z,11.30
2019-05-22T03:33:01.138Z,11.30
2019-05-22T03:35:33.448Z,11.27
2019-05-22T03:38:04.440Z,11.28
2019-05-22T03:40:37.189Z,11.29
2019-05-22T03:43:28.120Z,11.27
2019-05-22T03:46:00.773Z,11.27
2019-05-22T03:48:36.303Z,11.32
2019-05-22T03:51:13.427Z,11.28
2019-05-22T03:53:44.016Z,11.29
2019-05-22T03:56:15.366Z,11.30
2019-05-22T03:58:45.435Z,11.30
2019-05-22T04:01:15.647Z,11.30
2019-05-22T04:03:46.831Z,11.32
2019-05-22T04:06:17.497Z,11.32
2019-05-22T04:08:47.634Z,11.36
2019-05-22T04:11:19.065Z,11.33
2019-05-22T04:13:49.069Z,11.26
2019-05-22T04:16:21.513Z,11.26
2019-05-22T04:18:50.984Z,11.21
2019-05-22T04:21:20.510Z,11.25
2019-05-22T04:23:49.831Z,11.24
2019-05-22T04:26:19.295Z,11.21
2019-05-22T04:28:52.802Z,11.20
2019-05-22T04:31:51.868Z,11.19
2019-05-22T04:34:21.693Z,11.18
2019-05-22T04:36:52.134Z,11.16
2019-05-22T04:39:24.288Z,11.16
2019-05-22T04:41:53.898Z,11.16
2019-05-22T04:44:23.235Z,11.14
2019-05-22T04:46:52.774Z,11.14
2019-05-22T04:49:22.212Z,11.20
2019-05-22T04:51:51.965Z,11.20
2019-05-22T04:54:21.309Z,11.26
2019-05-22T04:56:51.594Z,11.22
2019-05-22T04:59:20.894Z,11.24
2019-05-22T05:01:50.443Z,11.28
2019-05-22T05:04:19.846Z,11.29
2019-05-22T05:06:49.704Z,11.29
2019-05-22T05:09:19.538Z,11.29
2019-05-22T05:11:49.400Z,11.31
2019-05-22T05:14:18.725Z,11.31
2019-05-22T05:16:48.765Z,11.34
2019-05-22T05:19:18.374Z,11.40
2019-05-22T05:21:48.142Z,11.40
2019-05-22T05:24:17.594Z,11.44
2019-05-22T05:26:47.254Z,11.44
2019-05-22T05:29:31.130Z,11.44
2019-05-22T05:32:00.815Z,11.47
2019-05-22T05:34:56.600Z,11.50
2019-05-22T05:37:26.346Z,11.52
2019-05-22T05:40:43.848Z,11.52
2019-05-22T05:43:16.128Z,11.53
2019-05-22T05:45:47.647Z,11.56
2019-05-22T05:48:21.090Z,11.56
2019-05-22T05:51:33.867Z,11.57
2019-05-22T05:54:08.688Z,11.59
2019-05-22T05:56:40.979Z,11.59
2019-05-22T05:59:12.547Z,11.62
2019-05-22T06:01:45.506Z,11.66
2019-05-22T06:04:16.964Z,11.66
2019-05-22T06:07:19.177Z,11.71
2019-05-22T06:09:55.938Z,11.75
2019-05-22T06:12:25.856Z,11.89
2019-05-22T06:14:56.913Z,11.89
2019-05-22T06:18:16.233Z,11.92
2019-05-22T06:21:01.203Z,11.94
2019-05-22T06:23:55.521Z,12.02
2019-05-22T06:27:00.153Z,12.06
2019-05-22T06:29:43.830Z,12.10
2019-05-22T06:32:48.982Z,12.12
2019-05-22T06:35:18.933Z,12.14
2019-05-22T06:38:18.122Z,12.18
2019-05-22T06:40:47.492Z,12.18
2019-05-22T06:44:01.529Z,12.20
2019-05-22T06:46:55.716Z,12.23
2019-05-22T06:49:43.031Z,12.28
2019-05-22T06:52:13.043Z,12.33
2019-05-22T06:54:42.367Z,12.37
2019-05-22T06:57:15.154Z,12.41
2019-05-22T06:59:46.734Z,12.46
2019-05-22T07:02:19.084Z,12.46
2019-05-22T07:04:48.691Z,12.53
2019-05-22T07:07:18.345Z,12.57
2019-05-22T07:09:48.580Z,12.62
2019-05-22T07:12:24.440Z,12.69
2019-05-22T07:15:21.403Z,12.74
2019-05-22T07:17:53.527Z,12.76
2019-05-22T07:20:24.922Z,12.76
2019-05-22T07:22:54.987Z,12.79
2019-05-22T07:25:24.820Z,12.86
2019-05-22T07:27:54.847Z,12.92
2019-05-22T07:30:24.723Z,12.95
2019-05-22T07:32:55.418Z,12.97
2019-05-22T07:35:43.797Z,13.02
2019-05-22T07:37:57.863Z,13.07
2019-05-22T07:40:27.718Z,13.13
2019-05-22T07:42:57.957Z,13.19
2019-05-22T07:45:28.343Z,13.25
2019-05-22T07:47:58.659Z,13.29
2019-05-22T07:50:31.003Z,13.33
2019-05-22T07:53:00.751Z,13.36
2019-05-22T07:55:32.739Z,13.41
2019-05-22T07:58:10.610Z,13.47
2019-05-22T08:00:43.822Z,13.46
2019-05-22T08:03:13.559Z,13.49
2019-05-22T08:05:45.966Z,13.54
2019-05-22T08:08:18.836Z,13.54
2019-05-22T08:10:48.121Z,13.59
2019-05-22T08:13:18.277Z,13.65
2019-05-22T08:15:48.326Z,13.71
2019-05-22T08:18:18.906Z,13.79
2019-05-22T08:20:48.468Z,13.87
2019-05-22T08:23:18.212Z,13.96
2019-05-22T08:25:47.799Z,14.08
2019-05-22T08:28:18.436Z,14.19
2019-05-22T08:30:49.955Z,14.29
2019-05-22T08:33:20.789Z,14.39
2019-05-22T08:35:50.819Z,14.46
2019-05-22T08:38:26.925Z,14.50
2019-05-22T08:40:58.144Z,14.53
2019-05-22T08:43:28.609Z,14.58
2019-05-22T08:45:58.106Z,14.60
2019-05-22T08:48:28.107Z,14.60
2019-05-22T08:50:58.710Z,14.62
2019-05-22T08:53:44.483Z,14.71
2019-05-22T08:56:01.396Z,14.81
2019-05-22T08:58:32.015Z,14.81
2019-05-22T09:01:01.437Z,14.87
2019-05-22T09:03:31.068Z,14.92
2019-05-22T09:06:00.714Z,14.95
2019-05-22T09:08:30.683Z,14.91
2019-05-22T09:11:00.017Z,15.01
2019-05-22T09:13:29.414Z,15.06
2019-05-22T09:16:01.813Z,15.06
2019-05-22T09:18:30.028Z,15.10
2019-05-22T09:20:59.641Z,15.14
2019-05-22T09:23:29.267Z,15.18
2019-05-22T09:25:59.234Z,15.24
2019-05-22T09:28:28.755Z,15.34
2019-05-22T09:30:58.195Z,15.38
2019-05-22T09:33:27.856Z,15.38
2019-05-22T09:35:57.985Z,15.38
2019-05-22T09:38:27.508Z,15.43
2019-05-22T09:40:56.908Z,15.51
2019-05-22T09:43:26.299Z,15.59
2019-05-22T09:45:55.654Z,15.55
2019-05-22T09:48:24.985Z,15.60
2019-05-22T09:50:54.663Z,15.58
2019-05-22T09:53:24.718Z,15.56
2019-05-22T09:55:54.540Z,15.57
2019-05-22T09:58:24.187Z,15.61
2019-05-22T10:00:53.918Z,15.63
2019-05-22T10:03:23.724Z,15.69
2019-05-22T10:05:53.342Z,15.81
2019-05-22T10:08:23.173Z,15.93
2019-05-22T10:10:52.695Z,16.06
2019-05-22T10:13:22.175Z,16.09
2019-05-22T10:15:51.792Z,16.12
2019-05-22T10:18:21.471Z,16.16
2019-05-22T10:20:50.877Z,16.20
2019-05-22T10:23:20.429Z,16.23
2019-05-22T10:25:50.462Z,16.28
2019-05-22T10:28:19.850Z,16.33
2019-05-22T10:30:49.229Z,16.42
2019-05-22T10:33:18.960Z,16.51
2019-05-22T10:35:48.481Z,16.58
2019-05-22T10:38:17.907Z,16.62
2019-05-22T10:40:47.403Z,16.63
2019-05-22T10:43:17.146Z,16.68
2019-05-22T10:45:47.117Z,16.75
2019-05-22T10:48:16.561Z,16.79
2019-05-22T10:50:45.909Z,16.86
2019-05-22T10:53:30.632Z,16.90
2019-05-22T10:55:47.031Z,16.95
2019-05-22T10:58:17.019Z,16.95
2019-05-22T11:00:46.456Z,16.98
2019-05-22T11:03:16.585Z,17.08
2019-05-22T11:05:46.815Z,17.15
2019-05-22T11:08:16.183Z,17.15
2019-05-22T11:10:45.695Z,17.17
2019-05-22T11:13:15.127Z,17.20
2019-05-22T11:15:44.878Z,17.24
2019-05-22T11:18:14.411Z,17.32
2019-05-22T11:20:44.259Z,17.42
2019-05-22T11:23:13.608Z,17.46
2019-05-22T11:25:42.964Z,17.51
2019-05-22T11:28:12.431Z,17.60
2019-05-22T11:30:42.271Z,17.65
2019-05-22T11:33:12.346Z,17.68
2019-05-22T11:35:41.714Z,17.77
2019-05-22T11:38:11.094Z,17.82
2019-05-22T11:40:41.187Z,17.90
2019-05-22T11:43:11.324Z,17.98
2019-05-22T11:45:44.482Z,18.08
2019-05-22T11:48:12.153Z,18.20
2019-05-22T11:50:43.188Z,18.32
2019-05-22T11:53:13.625Z,18.48
2019-05-22T11:55:45.908Z,18.57
2019-05-22T11:58:14.503Z,18.67
2019-05-22T12:00:43.848Z,18.76
2019-05-22T12:03:13.357Z,18.82
2019-05-22T12:05:43.600Z,18.87
2019-05-22T12:08:13.753Z,18.90
2019-05-22T12:10:43.837Z,18.94
2019-05-22T12:13:14.088Z,18.91
2019-05-22T12:15:44.463Z,18.95
2019-05-22T12:18:14.270Z,19.05
2019-05-22T12:20:44.294Z,19.08
2019-05-22T12:23:13.935Z,19.10
2019-05-22T12:25:43.251Z,19.22
2019-05-22T12:28:12.579Z,19.32
2019-05-22T12:30:42.547Z,19.37
2019-05-22T12:33:14.130Z,19.38
2019-05-22T12:35:43.299Z,19.46
2019-05-22T12:38:14.944Z,19.47
2019-05-22T12:40:45.130Z,19.45
2019-05-22T12:43:14.736Z,19.48
2019-05-22T12:45:44.554Z,19.54
2019-05-22T12:48:14.764Z,19.57
2019-05-22T12:50:44.143Z,19.65
2019-05-22T12:53:16.186Z,19.66
2019-05-22T12:55:45.929Z,19.74
2019-05-22T12:58:15.244Z,19.78
2019-05-22T13:00:45.035Z,19.81
2019-05-22T13:03:16.065Z,19.92
2019-05-22T13:05:46.537Z,19.92
2019-05-22T13:08:16.407Z,19.97
2019-05-22T13:10:48.840Z,19.99
2019-05-22T13:13:18.952Z,20.04
2019-05-22T13:15:49.444Z,20.08
2019-05-22T13:18:20.403Z,20.16
2019-05-22T13:20:51.402Z,20.17
2019-05-22T13:23:24.743Z,20.14
2019-05-22T13:25:54.782Z,20.11
2019-05-22T13:28:25.922Z,20.11
2019-05-22T13:30:57.145Z,20.14
2019-05-22T13:33:29.184Z,20.15
2019-05-22T13:35:59.579Z,20.20
2019-05-22T13:38:29.064Z,20.19
2019-05-22T13:40:58.493Z,20.24
2019-05-22T13:43:28.632Z,20.36
2019-05-22T13:45:58.214Z,20.43
2019-05-22T13:48:27.973Z,20.52
2019-05-22T13:50:59.282Z,20.60
2019-05-22T13:53:30.000Z,20.67
2019-05-22T13:55:59.464Z,20.66
2019-05-22T13:58:29.675Z,20.64
2019-05-22T14:00:59.144Z,20.71
2019-05-22T14:03:28.954Z,20.77
2019-05-22T14:05:58.907Z,20.83
2019-05-22T14:08:28.695Z,20.97
2019-05-22T14:10:58.832Z,21.08
2019-05-22T14:13:28.750Z,21.19
2019-05-22T14:15:58.340Z,21.20
2019-05-22T14:18:27.878Z,21.39
2019-05-22T14:20:57.427Z,21.45
2019-05-22T14:23:26.803Z,21.51
2019-05-22T14:25:56.499Z,21.63
2019-05-22T14:28:27.419Z,21.68
2019-05-22T14:30:56.958Z,21.76
2019-05-22T14:33:28.232Z,21.82
2019-05-22T14:35:57.791Z,21.87
2019-05-22T14:38:27.662Z,22.01
2019-05-22T14:40:57.490Z,22.04
2019-05-22T14:43:26.853Z,22.05
2019-05-22T14:45:56.343Z,21.99
2019-05-22T14:48:25.698Z,22.06
2019-05-22T14:50:55.055Z,22.07
2019-05-22T14:53:24.867Z,22.18
2019-05-22T14:55:54.676Z,22.39
2019-05-22T14:58:24.348Z,22.53
2019-05-22T15:00:54.680Z,22.70
2019-05-22T15:03:24.058Z,22.87
2019-05-22T15:05:54.290Z,22.88
2019-05-22T15:08:24.234Z,22.99
2019-05-22T15:10:56.297Z,23.04
2019-05-22T15:13:26.100Z,23.13
2019-05-22T15:15:55.625Z,23.15
2019-05-22T15:18:25.073Z,23.18
2019-05-22T15:21:00.171Z,23.23
2019-05-22T15:23:31.127Z,23.30
2019-05-22T15:26:01.849Z,23.39
2019-05-22T15:28:31.586Z,23.43
2019-05-22T15:31:01.739Z,23.48
2019-05-22T15:33:31.300Z,23.50
2019-05-22T15:36:00.836Z,23.53
2019-05-22T15:38:31.051Z,23.55
2019-05-22T15:41:01.144Z,23.76
2019-05-22T15:43:31.307Z,23.87
2019-05-22T15:46:05.025Z,23.86
2019-05-22T15:48:35.414Z,23.95
2019-05-22T15:51:07.708Z,24.06
2019-05-22T15:53:39.175Z,24.16
2019-05-22T15:56:09.508Z,24.28
2019-05-22T15:58:48.902Z,24.53
2019-05-22T16:01:21.780Z,24.70
2019-05-22T16:03:52.472Z,24.87
2019-05-22T16:06:25.465Z,25.01
2019-05-22T16:08:55.298Z,25.18
2019-05-22T16:11:27.587Z,25.34
2019-05-22T16:14:00.908Z,25.34
2019-05-22T16:16:30.384Z,25.45
2019-05-22T16:19:03.062Z,25.48
2019-05-22T16:21:34.920Z,25.40
2019-05-22T16:24:05.397Z,25.24
2019-05-22T16:26:35.162Z,25.18
2019-05-22T16:29:04.988Z,25.18
2019-05-22T16:31:36.089Z,25.20
2019-05-22T16:34:06.215Z,25.30
2019-05-22T16:36:36.254Z,25.49
2019-05-22T16:39:08.170Z,25.80
2019-05-22T16:41:37.648Z,26.09
2019-05-22T16:44:07.992Z,26.23
2019-05-22T16:46:37.729Z,26.38
2019-05-22T16:49:08.663Z,26.60
2019-05-22T16:51:38.266Z,26.78
2019-05-22T16:54:09.624Z,26.87
2019-05-22T16:56:39.440Z,26.89
2019-05-22T16:59:11.984Z,26.91
2019-05-22T17:01:57.467Z,27.15
2019-05-22T17:04:13.104Z,27.45
2019-05-22T17:06:43.401Z,27.61
2019-05-22T17:09:15.436Z,27.59
2019-05-22T17:11:44.987Z,27.47
2019-05-22T17:14:21.194Z,27.49
2019-05-22T17:16:55.407Z,27.67
2019-05-22T17:19:29.489Z,27.68
2019-05-22T17:22:00.056Z,27.56
2019-05-22T17:24:34.534Z,27.55
2019-05-22T17:27:10.319Z,27.47
2019-05-22T17:29:39.787Z,27.50
2019-05-22T17:32:10.803Z,27.65
2019-05-22T17:34:41.327Z,27.67
2019-05-22T17:37:15.782Z,27.50
2019-05-22T17:39:48.411Z,27.37
2019-05-22T17:42:23.395Z,27.25
2019-05-22T17:44:54.041Z,27.02
2019-05-22T17:47:26.245Z,26.79
2019-05-22T17:49:56.871Z,26.70
2019-05-22T17:52:27.835Z,26.70
2019-05-22T17:54:57.602Z,26.59
2019-05-22T17:57:27.441Z,26.42
2019-05-22T17:59:57.114Z,26.14
2019-05-22T18:02:31.750Z,25.97
2019-05-22T18:05:02.009Z,25.89
2019-05-22T18:07:32.314Z,25.97
2019-05-22T18:10:01.951Z,26.06
2019-05-22T18:12:31.711Z,26.06
2019-05-22T18:15:01.034Z,25.94
2019-05-22T18:17:30.410Z,25.78
2019-05-22T18:20:00.783Z,25.69
2019-05-22T18:22:30.106Z,25.50
2019-05-22T18:24:59.508Z,25.37
2019-05-22T18:27:29.121Z,25.30
2019-05-22T18:29:58.901Z,25.21
2019-05-22T18:32:31.433Z,25.14
2019-05-22T18:34:59.465Z,25.05
2019-05-22T18:37:28.796Z,24.93
2019-05-22T18:39:58.209Z,24.76
2019-05-22T18:42:27.666Z,24.51
2019-05-22T18:44:57.238Z,24.36
2019-05-22T18:47:26.750Z,24.15
2019-05-22T18:49:56.070Z,23.93
2019-05-22T18:52:39.926Z,23.61
2019-05-22T18:54:57.023Z,23.38
2019-05-22T18:57:26.433Z,23.12
2019-05-22T19:00:02.853Z,22.87
2019-05-22T19:02:27.103Z,22.59
2019-05-22T19:04:56.477Z,22.31
2019-05-22T19:07:25.840Z,22.08
2019-05-22T19:09:55.237Z,21.83
2019-05-22T19:12:25.364Z,21.67
2019-05-22T19:14:55.224Z,21.45
2019-05-22T19:17:25.075Z,21.28
2019-05-22T19:19:55.091Z,21.11
2019-05-22T19:22:24.649Z,20.93
2019-05-22T19:24:54.025Z,20.74
2019-05-22T19:27:23.545Z,20.58
2019-05-22T19:29:52.968Z,20.43
2019-05-22T19:32:22.318Z,20.30
2019-05-22T19:34:51.680Z,20.13
2019-05-22T19:37:21.214Z,19.98
2019-05-22T19:39:50.817Z,19.87
2019-05-22T19:42:20.370Z,19.75
2019-05-22T19:44:49.841Z,19.59
2019-05-22T19:47:19.805Z,19.48
2019-05-22T19:49:49.103Z,19.31
2019-05-22T19:52:22.423Z,19.19
2019-05-22T19:54:51.173Z,19.08
2019-05-22T19:57:20.949Z,18.97
2019-05-22T19:59:50.297Z,18.86
2019-05-22T20:02:20.261Z,18.77
2019-05-22T20:04:49.833Z,18.66
2019-05-22T20:07:19.337Z,18.55
2019-05-22T20:09:49.275Z,18.46
2019-05-22T20:12:19.136Z,18.35
2019-05-22T20:14:48.759Z,18.26
2019-05-22T20:17:18.152Z,18.17
2019-05-22T20:19:47.618Z,18.06
2019-05-22T20:22:18.138Z,17.95
2019-05-22T20:24:47.639Z,17.87
2019-05-22T20:27:17.342Z,17.79
2019-05-22T20:29:49.163Z,17.66
2019-05-22T20:32:19.602Z,17.56
2019-05-22T20:34:49.437Z,17.47
2019-05-22T20:37:19.127Z,17.38
2019-05-22T20:39:48.658Z,17.31
2019-05-22T20:42:18.004Z,17.21
2019-05-22T20:44:47.457Z,17.11
2019-05-22T20:47:20.893Z,17.04
2019-05-22T20:49:51.647Z,17.01
2019-05-22T20:52:21.865Z,16.96
2019-05-22T20:54:51.835Z,16.90
2019-05-22T20:57:21.921Z,16.82
2019-05-22T20:59:52.060Z,16.75
2019-05-22T21:02:22.130Z,16.71
2019-05-22T21:04:53.759Z,16.66
2019-05-22T21:07:30.890Z,16.62
2019-05-22T21:10:00.249Z,16.53
2019-05-22T21:12:29.891Z,16.41
2019-05-22T21:14:59.449Z,16.35
2019-05-22T21:17:29.882Z,16.27
2019-05-22T21:19:59.407Z,16.24
2019-05-22T21:22:30.417Z,16.22
2019-05-22T21:24:59.857Z,16.20
2019-05-22T21:27:29.920Z,16.19
2019-05-22T21:29:59.498Z,16.14
2019-05-22T21:32:29.230Z,16.08
2019-05-22T21:34:59.049Z,16.02
2019-05-22T21:37:28.553Z,16.00
2019-05-22T21:39:58.219Z,15.99
2019-05-22T21:42:27.883Z,15.96
2019-05-22T21:44:57.269Z,15.92
2019-05-22T21:47:27.762Z,15.85
2019-05-22T21:49:57.674Z,15.77
2019-05-22T21:52:27.188Z,15.77
2019-05-22T21:54:56.696Z,15.76
2019-05-22T21:57:26.141Z,15.73
2019-05-22T21:59:55.960Z,15.72
2019-05-22T22:02:33.420Z,15.68
2019-05-22T22:05:02.927Z,15.65
2019-05-22T22:07:32.376Z,15.59
2019-05-22T22:10:02.736Z,15.55
2019-05-22T22:12:32.760Z,15.52
2019-05-22T22:15:02.809Z,15.45
2019-05-22T22:17:33.954Z,15.41
2019-05-22T22:20:03.872Z,15.36
2019-05-22T22:22:33.872Z,15.29
2019-05-22T22:25:03.985Z,15.22
2019-05-22T22:27:34.084Z,15.18
2019-05-22T22:30:05.630Z,15.12
2019-05-22T22:32:35.182Z,14.95
2019-05-22T22:35:05.179Z,14.94
2019-05-22T22:37:35.908Z,14.95
2019-05-22T22:40:05.353Z,14.95
2019-05-22T22:42:37.159Z,14.93
2019-05-22T22:45:11.480Z,14.93
2019-05-22T22:47:45.884Z,14.92
2019-05-22T22:50:16.694Z,14.87
2019-05-22T22:52:47.045Z,14.83
2019-05-22T22:55:19.194Z,14.80
2019-05-22T22:57:51.116Z,14.75
2019-05-22T23:00:29.723Z,14.73
2019-05-22T23:03:00.469Z,14.68
2019-05-22T23:05:30.699Z,14.63
2019-05-22T23:08:02.119Z,14.61
2019-05-22T23:10:32.565Z,14.60
2019-05-22T23:13:03.919Z,14.59
2019-05-22T23:15:33.330Z,14.54
2019-05-22T23:18:03.400Z,14.50
2019-05-22T23:20:31.425Z,14.50
2019-05-22T23:23:00.556Z,14.45
2019-05-22T23:25:31.265Z,14.43
2019-05-22T23:28:02.361Z,14.41
2019-05-22T23:30:32.170Z,14.38
2019-05-22T23:33:03.196Z,14.35
2019-05-22T23:35:32.729Z,14.25
2019-05-22T23:38:02.534Z,14.19
2019-05-22T23:40:35.335Z,14.10
2019-05-22T23:43:05.770Z,14.06
2019-05-22T23:45:36.395Z,14.06
2019-05-22T23:48:14.437Z,14.03
2019-05-22T23:50:44.682Z,14.00
2019-05-22T23:53:16.227Z,13.98
2019-05-22T23:55:46.455Z,13.96
2019-05-22T23:58:17.882Z,13.93
